N312RK KPWK-KMEM
Flight info
| Callsign | N312RK |
|---|---|
| Flight time | 1h 24m |
| Altitude | 165000 |
| Route | VFR/SE |
| Aircraft | C25C/L-G/L |
Departure
| Time | 2026-05-05 11:22 |
|---|---|
| Airport | Chicago Executive Airport (KPWK) |
Arrival
| Time | 2026-05-05 12:46 |
|---|---|
| Airport | Memphis International Airport (KMEM) |
| Time | Latitude | Longitude | Altitude | Speed | Heading |
|---|---|---|---|---|---|
| 2026-05-05 11:15 | 42.11740 | -87.89701 | 645 ft | 0 kts | 176° |
| 2026-05-05 11:17 | 42.11739 | -87.89696 | 645 ft | 1 kts | 83° |
| 2026-05-05 11:18 | 42.11750 | -87.89719 | 645 ft | 11 kts | 284° |
| 2026-05-05 11:18 | 42.11759 | -87.89916 | 646 ft | 28 kts | 272° |
| 2026-05-05 11:18 | 42.11731 | -87.90106 | 644 ft | 18 kts | 252° |
| 2026-05-05 11:18 | 42.11706 | -87.90190 | 644 ft | 6 kts | 234° |
| 2026-05-05 11:19 | 42.11669 | -87.90202 | 645 ft | 7 kts | 161° |
| 2026-05-05 11:19 | 42.11601 | -87.90167 | 646 ft | 21 kts | 160° |
| 2026-05-05 11:19 | 42.11458 | -87.90097 | 646 ft | 21 kts | 158° |
| 2026-05-05 11:19 | 42.11320 | -87.90025 | 645 ft | 21 kts | 159° |
| 2026-05-05 11:20 | 42.11179 | -87.89950 | 643 ft | 22 kts | 157° |
| 2026-05-05 11:20 | 42.11099 | -87.89948 | 643 ft | 0 kts | 210° |
| 2026-05-05 11:21 | 42.11097 | -87.89950 | 643 ft | 8 kts | 213° |
| 2026-05-05 11:21 | 42.11094 | -87.90062 | 644 ft | 16 kts | 338° |
| 2026-05-05 11:22 | 42.11486 | -87.90269 | 647 ft | 109 kts | 338° |
| 2026-05-05 11:22 | 42.12386 | -87.90741 | 1011 ft | 151 kts | 339° |
| 2026-05-05 11:22 | 42.13384 | -87.91462 | 1869 ft | 176 kts | 317° |
| 2026-05-05 11:22 | 42.13929 | -87.92952 | 2941 ft | 192 kts | 280° |
| 2026-05-05 11:23 | 42.13585 | -87.94813 | 3785 ft | 221 kts | 240° |
| 2026-05-05 11:23 | 42.12416 | -87.96186 | 5016 ft | 229 kts | 214° |
| 2026-05-05 11:23 | 42.10876 | -87.97055 | 5873 ft | 250 kts | 208° |
| 2026-05-05 11:23 | 42.09630 | -87.97874 | 6895 ft | 237 kts | 218° |
| 2026-05-05 11:24 | 42.08285 | -87.99004 | 8476 ft | 220 kts | 217° |
| 2026-05-05 11:24 | 42.06872 | -87.99745 | 9902 ft | 218 kts | 204° |
| 2026-05-05 11:24 | 42.05397 | -88.00180 | 11112 ft | 213 kts | 207° |
| 2026-05-05 11:24 | 42.04055 | -88.00968 | 12526 ft | 211 kts | 217° |
| 2026-05-05 11:25 | 42.02886 | -88.02065 | 14100 ft | 195 kts | 228° |
| 2026-05-05 11:25 | 42.01639 | -88.02900 | 15368 ft | 222 kts | 204° |
| 2026-05-05 11:25 | 41.99973 | -88.03329 | 15510 ft | 274 kts | 201° |
| 2026-05-05 11:25 | 41.97898 | -88.03762 | 15783 ft | 316 kts | 197° |
| 2026-05-05 11:26 | 41.95609 | -88.04159 | 16017 ft | 348 kts | 197° |
| 2026-05-05 11:26 | 41.93223 | -88.04504 | 15956 ft | 338 kts | 193° |
| 2026-05-05 11:26 | 41.90947 | -88.04645 | 16084 ft | 319 kts | 192° |
| 2026-05-05 11:26 | 41.88672 | -88.04741 | 16230 ft | 338 kts | 191° |
| 2026-05-05 11:27 | 41.86257 | -88.04860 | 16379 ft | 354 kts | 191° |
| 2026-05-05 11:27 | 41.83777 | -88.04986 | 16427 ft | 359 kts | 191° |
| 2026-05-05 11:27 | 41.81263 | -88.05121 | 16448 ft | 364 kts | 191° |
| 2026-05-05 11:27 | 41.78723 | -88.05267 | 16463 ft | 368 kts | 191° |
| 2026-05-05 11:28 | 41.76151 | -88.05421 | 16470 ft | 372 kts | 191° |
| 2026-05-05 11:28 | 41.73553 | -88.05589 | 16478 ft | 375 kts | 191° |
| 2026-05-05 11:28 | 41.70970 | -88.05753 | 16479 ft | 366 kts | 191° |
| 2026-05-05 11:28 | 41.68461 | -88.05900 | 16478 ft | 353 kts | 191° |
| 2026-05-05 11:29 | 41.66034 | -88.06030 | 16474 ft | 346 kts | 191° |
| 2026-05-05 11:29 | 41.63661 | -88.06155 | 16471 ft | 346 kts | 191° |
| 2026-05-05 11:29 | 41.61258 | -88.06285 | 16473 ft | 345 kts | 191° |
| 2026-05-05 11:29 | 41.58853 | -88.06417 | 16472 ft | 345 kts | 191° |
| 2026-05-05 11:30 | 41.56463 | -88.06555 | 16471 ft | 345 kts | 191° |
| 2026-05-05 11:30 | 41.54063 | -88.06692 | 16473 ft | 344 kts | 191° |
| 2026-05-05 11:30 | 41.51667 | -88.06835 | 16493 ft | 344 kts | 191° |
| 2026-05-05 11:30 | 41.49278 | -88.06981 | 16490 ft | 343 kts | 191° |
| 2026-05-05 11:31 | 41.46914 | -88.07125 | 16489 ft | 345 kts | 191° |
| 2026-05-05 11:31 | 41.44485 | -88.07286 | 16489 ft | 352 kts | 191° |
| 2026-05-05 11:31 | 41.42026 | -88.07460 | 16491 ft | 357 kts | 191° |
| 2026-05-05 11:31 | 41.39528 | -88.07646 | 16482 ft | 361 kts | 191° |
| 2026-05-05 11:32 | 41.37004 | -88.07844 | 16478 ft | 365 kts | 191° |
| 2026-05-05 11:32 | 41.34459 | -88.08048 | 16478 ft | 367 kts | 191° |
| 2026-05-05 11:32 | 41.31899 | -88.08263 | 16478 ft | 370 kts | 191° |
| 2026-05-05 11:32 | 41.29325 | -88.08482 | 16477 ft | 371 kts | 191° |
| 2026-05-05 11:33 | 41.26738 | -88.08708 | 16468 ft | 373 kts | 191° |
| 2026-05-05 11:33 | 41.24148 | -88.08938 | 16462 ft | 371 kts | 191° |
| 2026-05-05 11:33 | 41.21590 | -88.09162 | 16465 ft | 367 kts | 191° |
| 2026-05-05 11:33 | 41.19051 | -88.09385 | 16459 ft | 364 kts | 191° |
| 2026-05-05 11:34 | 41.16532 | -88.09602 | 16462 ft | 361 kts | 191° |
| 2026-05-05 11:34 | 41.14066 | -88.09817 | 16465 ft | 359 kts | 191° |
| 2026-05-05 11:34 | 41.11583 | -88.10031 | 16461 ft | 357 kts | 191° |
| 2026-05-05 11:34 | 41.09107 | -88.10245 | 16464 ft | 355 kts | 191° |
| 2026-05-05 11:35 | 41.06642 | -88.10461 | 16463 ft | 354 kts | 191° |
| 2026-05-05 11:35 | 41.04182 | -88.10671 | 16465 ft | 353 kts | 191° |
| 2026-05-05 11:35 | 41.01733 | -88.10887 | 16463 ft | 352 kts | 191° |
| 2026-05-05 11:35 | 40.99285 | -88.11100 | 16463 ft | 352 kts | 191° |
| 2026-05-05 11:36 | 40.96844 | -88.11314 | 16464 ft | 352 kts | 191° |
| 2026-05-05 11:36 | 40.94400 | -88.11532 | 16463 ft | 351 kts | 191° |
| 2026-05-05 11:36 | 40.91961 | -88.11746 | 16460 ft | 351 kts | 191° |
| 2026-05-05 11:36 | 40.89565 | -88.12027 | 16492 ft | 349 kts | 193° |
| 2026-05-05 11:37 | 40.87139 | -88.12390 | 16489 ft | 352 kts | 194° |
| 2026-05-05 11:37 | 40.84697 | -88.12786 | 16487 ft | 354 kts | 194° |
| 2026-05-05 11:37 | 40.82243 | -88.13193 | 16489 ft | 356 kts | 194° |
| 2026-05-05 11:37 | 40.79779 | -88.13610 | 16490 ft | 357 kts | 194° |
| 2026-05-05 11:38 | 40.77305 | -88.14033 | 16490 ft | 359 kts | 194° |
| 2026-05-05 11:38 | 40.74852 | -88.14453 | 16490 ft | 360 kts | 194° |
| 2026-05-05 11:38 | 40.72360 | -88.14888 | 16488 ft | 361 kts | 194° |
| 2026-05-05 11:38 | 40.69864 | -88.15321 | 16491 ft | 362 kts | 194° |
| 2026-05-05 11:39 | 40.67367 | -88.15761 | 16488 ft | 362 kts | 194° |
| 2026-05-05 11:39 | 40.64865 | -88.16202 | 16491 ft | 363 kts | 194° |
| 2026-05-05 11:39 | 40.62357 | -88.16645 | 16492 ft | 364 kts | 194° |
| 2026-05-05 11:39 | 40.59848 | -88.17093 | 16493 ft | 364 kts | 194° |
| 2026-05-05 11:40 | 40.57330 | -88.17542 | 16498 ft | 364 kts | 194° |
| 2026-05-05 11:40 | 40.54818 | -88.17996 | 16499 ft | 365 kts | 194° |
| 2026-05-05 11:40 | 40.52297 | -88.18452 | 16498 ft | 365 kts | 194° |
| 2026-05-05 11:40 | 40.49782 | -88.18909 | 16497 ft | 365 kts | 194° |
| 2026-05-05 11:41 | 40.47263 | -88.19371 | 16500 ft | 365 kts | 194° |
| 2026-05-05 11:41 | 40.44767 | -88.19827 | 16501 ft | 366 kts | 194° |
| 2026-05-05 11:41 | 40.42247 | -88.20296 | 16502 ft | 366 kts | 194° |
| 2026-05-05 11:41 | 40.39725 | -88.20762 | 16501 ft | 366 kts | 194° |
| 2026-05-05 11:42 | 40.37203 | -88.21236 | 16501 ft | 366 kts | 194° |
| 2026-05-05 11:42 | 40.34678 | -88.21711 | 16502 ft | 366 kts | 194° |
| 2026-05-05 11:42 | 40.32153 | -88.22190 | 16503 ft | 367 kts | 194° |
| 2026-05-05 11:42 | 40.29629 | -88.22674 | 16502 ft | 367 kts | 194° |
| 2026-05-05 11:43 | 40.27104 | -88.23159 | 16500 ft | 367 kts | 194° |
| 2026-05-05 11:43 | 40.24580 | -88.23650 | 16502 ft | 367 kts | 194° |
| 2026-05-05 11:43 | 40.22053 | -88.24143 | 16504 ft | 367 kts | 194° |
| 2026-05-05 11:43 | 40.19524 | -88.24645 | 16503 ft | 367 kts | 194° |
| 2026-05-05 11:44 | 40.17000 | -88.25145 | 16493 ft | 367 kts | 194° |
| 2026-05-05 11:44 | 40.14477 | -88.25651 | 16495 ft | 367 kts | 194° |
| 2026-05-05 11:44 | 40.11953 | -88.26161 | 16496 ft | 367 kts | 194° |
| 2026-05-05 11:44 | 40.09427 | -88.26674 | 16491 ft | 367 kts | 194° |
| 2026-05-05 11:45 | 40.06903 | -88.27195 | 16493 ft | 367 kts | 194° |
| 2026-05-05 11:45 | 40.04376 | -88.27715 | 16494 ft | 367 kts | 194° |
| 2026-05-05 11:45 | 40.01883 | -88.28239 | 16495 ft | 367 kts | 194° |
| 2026-05-05 11:45 | 39.99356 | -88.28769 | 16492 ft | 368 kts | 194° |
| 2026-05-05 11:46 | 39.96831 | -88.29306 | 16493 ft | 368 kts | 194° |
| 2026-05-05 11:46 | 39.94307 | -88.29846 | 16493 ft | 368 kts | 194° |
| 2026-05-05 11:46 | 39.91780 | -88.30391 | 16495 ft | 367 kts | 194° |
| 2026-05-05 11:46 | 39.89258 | -88.30941 | 16496 ft | 367 kts | 194° |
| 2026-05-05 11:47 | 39.86733 | -88.31492 | 16492 ft | 367 kts | 194° |
| 2026-05-05 11:47 | 39.84215 | -88.32051 | 16490 ft | 367 kts | 194° |
| 2026-05-05 11:47 | 39.81693 | -88.32611 | 16488 ft | 367 kts | 194° |
| 2026-05-05 11:47 | 39.79178 | -88.33192 | 16487 ft | 367 kts | 195° |
| 2026-05-05 11:48 | 39.74153 | -88.34433 | 16491 ft | 367 kts | 195° |
| 2026-05-05 11:48 | 39.71637 | -88.35066 | 16492 ft | 367 kts | 195° |
| 2026-05-05 11:48 | 39.69129 | -88.35708 | 16496 ft | 367 kts | 195° |
| 2026-05-05 11:49 | 39.66621 | -88.36349 | 16501 ft | 367 kts | 195° |
| 2026-05-05 11:49 | 39.64151 | -88.36988 | 16498 ft | 367 kts | 195° |
| 2026-05-05 11:49 | 39.61645 | -88.37636 | 16504 ft | 367 kts | 195° |
| 2026-05-05 11:49 | 39.59137 | -88.38285 | 16505 ft | 367 kts | 195° |
| 2026-05-05 11:50 | 39.56634 | -88.38934 | 16507 ft | 367 kts | 195° |
| 2026-05-05 11:50 | 39.54130 | -88.39581 | 16510 ft | 367 kts | 195° |
| 2026-05-05 11:50 | 39.51625 | -88.40234 | 16508 ft | 367 kts | 195° |
| 2026-05-05 11:50 | 39.49124 | -88.40882 | 16511 ft | 367 kts | 195° |
| 2026-05-05 11:51 | 39.46618 | -88.41535 | 16510 ft | 367 kts | 195° |
| 2026-05-05 11:51 | 39.44113 | -88.42186 | 16507 ft | 366 kts | 195° |
| 2026-05-05 11:51 | 39.41612 | -88.42838 | 16507 ft | 366 kts | 195° |
| 2026-05-05 11:51 | 39.39145 | -88.43480 | 16504 ft | 366 kts | 195° |
| 2026-05-05 11:52 | 39.36642 | -88.44129 | 16501 ft | 366 kts | 195° |
| 2026-05-05 11:52 | 39.34145 | -88.44779 | 16500 ft | 366 kts | 195° |
| 2026-05-05 11:52 | 39.31644 | -88.45424 | 16500 ft | 366 kts | 195° |
| 2026-05-05 11:52 | 39.29144 | -88.46072 | 16497 ft | 366 kts | 195° |
| 2026-05-05 11:53 | 39.26645 | -88.46715 | 16495 ft | 366 kts | 195° |
| 2026-05-05 11:53 | 39.24147 | -88.47358 | 16492 ft | 366 kts | 195° |
| 2026-05-05 11:53 | 39.21645 | -88.47997 | 16491 ft | 366 kts | 195° |
| 2026-05-05 11:53 | 39.19130 | -88.48565 | 16488 ft | 367 kts | 194° |
| 2026-05-05 11:54 | 39.16610 | -88.49105 | 16484 ft | 367 kts | 194° |
| 2026-05-05 11:54 | 39.14113 | -88.49626 | 16494 ft | 367 kts | 194° |
| 2026-05-05 11:54 | 39.11589 | -88.50149 | 16493 ft | 367 kts | 193° |
| 2026-05-05 11:54 | 39.09065 | -88.50673 | 16493 ft | 367 kts | 194° |
| 2026-05-05 11:55 | 39.06540 | -88.51195 | 16495 ft | 368 kts | 194° |
| 2026-05-05 11:55 | 39.04017 | -88.51721 | 16495 ft | 368 kts | 194° |
| 2026-05-05 11:55 | 39.01491 | -88.52244 | 16495 ft | 368 kts | 194° |
| 2026-05-05 11:55 | 38.98958 | -88.52772 | 16501 ft | 368 kts | 194° |
| 2026-05-05 11:56 | 38.96456 | -88.53295 | 16500 ft | 368 kts | 194° |
| 2026-05-05 11:56 | 38.93923 | -88.53823 | 16508 ft | 367 kts | 194° |
| 2026-05-05 11:56 | 38.91395 | -88.54352 | 16502 ft | 368 kts | 194° |
| 2026-05-05 11:56 | 38.88867 | -88.54883 | 16510 ft | 367 kts | 194° |
| 2026-05-05 11:57 | 38.86342 | -88.55411 | 16511 ft | 367 kts | 194° |
| 2026-05-05 11:57 | 38.83823 | -88.55943 | 16512 ft | 367 kts | 194° |
| 2026-05-05 11:57 | 38.81296 | -88.56473 | 16510 ft | 367 kts | 194° |
| 2026-05-05 11:57 | 38.78772 | -88.57006 | 16513 ft | 368 kts | 194° |
| 2026-05-05 11:58 | 38.76279 | -88.57530 | 16517 ft | 368 kts | 194° |
| 2026-05-05 11:58 | 38.73755 | -88.58061 | 16519 ft | 368 kts | 194° |
| 2026-05-05 11:58 | 38.71228 | -88.58598 | 16518 ft | 368 kts | 194° |
| 2026-05-05 11:58 | 38.68704 | -88.59131 | 16516 ft | 368 kts | 194° |
| 2026-05-05 11:59 | 38.66176 | -88.59667 | 16520 ft | 368 kts | 194° |
| 2026-05-05 11:59 | 38.63651 | -88.60199 | 16512 ft | 368 kts | 194° |
| 2026-05-05 11:59 | 38.61122 | -88.60737 | 16520 ft | 368 kts | 194° |
| 2026-05-05 11:59 | 38.58594 | -88.61269 | 16519 ft | 368 kts | 194° |
| 2026-05-05 12:00 | 38.56067 | -88.61806 | 16520 ft | 368 kts | 194° |
| 2026-05-05 12:00 | 38.53545 | -88.62339 | 16519 ft | 367 kts | 194° |
| 2026-05-05 12:00 | 38.50971 | -88.62446 | 16517 ft | 375 kts | 180° |
| 2026-05-05 12:00 | 38.48381 | -88.62216 | 16519 ft | 369 kts | 187° |
| 2026-05-05 12:01 | 38.45863 | -88.62688 | 16520 ft | 364 kts | 195° |
| 2026-05-05 12:01 | 38.43384 | -88.63383 | 16507 ft | 364 kts | 198° |
| 2026-05-05 12:01 | 38.40925 | -88.64162 | 16507 ft | 363 kts | 198° |
| 2026-05-05 12:01 | 38.38478 | -88.64960 | 16506 ft | 363 kts | 199° |
| 2026-05-05 12:02 | 38.36028 | -88.65774 | 16505 ft | 363 kts | 199° |
| 2026-05-05 12:02 | 38.33585 | -88.66588 | 16511 ft | 363 kts | 199° |
| 2026-05-05 12:02 | 38.31135 | -88.67410 | 16509 ft | 363 kts | 199° |
| 2026-05-05 12:02 | 38.28691 | -88.68234 | 16507 ft | 363 kts | 199° |
| 2026-05-05 12:03 | 38.26246 | -88.69058 | 16508 ft | 363 kts | 199° |
| 2026-05-05 12:03 | 38.23833 | -88.69879 | 16504 ft | 363 kts | 199° |
| 2026-05-05 12:03 | 38.21391 | -88.70707 | 16505 ft | 363 kts | 199° |
| 2026-05-05 12:03 | 38.18953 | -88.71541 | 16505 ft | 363 kts | 199° |
| 2026-05-05 12:04 | 38.16512 | -88.72376 | 16501 ft | 363 kts | 199° |
| 2026-05-05 12:04 | 38.14076 | -88.73210 | 16499 ft | 363 kts | 199° |
| 2026-05-05 12:04 | 38.11641 | -88.74048 | 16503 ft | 363 kts | 199° |
| 2026-05-05 12:04 | 38.09208 | -88.74885 | 16500 ft | 363 kts | 199° |
| 2026-05-05 12:05 | 38.06772 | -88.75728 | 16501 ft | 362 kts | 199° |
| 2026-05-05 12:05 | 38.04335 | -88.76567 | 16499 ft | 362 kts | 199° |
| 2026-05-05 12:05 | 38.01904 | -88.77411 | 16503 ft | 362 kts | 199° |
| 2026-05-05 12:05 | 37.99470 | -88.78252 | 16502 ft | 362 kts | 199° |
| 2026-05-05 12:06 | 37.97038 | -88.79095 | 16501 ft | 362 kts | 199° |
| 2026-05-05 12:06 | 37.95429 | -88.79653 | 16503 ft | 362 kts | 199° |
| 2026-05-05 12:06 | 37.93001 | -88.80500 | 16502 ft | 362 kts | 199° |
| 2026-05-05 12:06 | 37.89781 | -88.81617 | 16494 ft | 362 kts | 199° |
| 2026-05-05 12:07 | 37.87352 | -88.82461 | 16495 ft | 362 kts | 199° |
| 2026-05-05 12:07 | 37.84923 | -88.83306 | 16492 ft | 362 kts | 199° |
| 2026-05-05 12:07 | 37.83312 | -88.83866 | 16492 ft | 362 kts | 199° |
| 2026-05-05 12:07 | 37.80886 | -88.84711 | 16491 ft | 361 kts | 199° |
| 2026-05-05 12:08 | 37.78458 | -88.85557 | 16493 ft | 361 kts | 199° |
| 2026-05-05 12:08 | 37.76031 | -88.86407 | 16491 ft | 361 kts | 199° |
| 2026-05-05 12:08 | 37.73601 | -88.87254 | 16490 ft | 361 kts | 199° |
| 2026-05-05 12:08 | 37.71178 | -88.88104 | 16489 ft | 361 kts | 199° |
| 2026-05-05 12:09 | 37.68758 | -88.88951 | 16491 ft | 361 kts | 199° |
| 2026-05-05 12:09 | 37.66336 | -88.89800 | 16493 ft | 361 kts | 199° |
| 2026-05-05 12:09 | 37.63920 | -88.90649 | 16493 ft | 361 kts | 199° |
| 2026-05-05 12:09 | 37.61498 | -88.91498 | 16492 ft | 361 kts | 199° |
| 2026-05-05 12:10 | 37.59107 | -88.92342 | 16489 ft | 361 kts | 199° |
| 2026-05-05 12:10 | 37.56689 | -88.93193 | 16492 ft | 361 kts | 199° |
| 2026-05-05 12:10 | 37.54280 | -88.94056 | 16491 ft | 360 kts | 200° |
| 2026-05-05 12:10 | 37.51950 | -88.95168 | 16490 ft | 358 kts | 206° |
| 2026-05-05 12:11 | 37.49670 | -88.96433 | 16488 ft | 357 kts | 207° |
| 2026-05-05 12:11 | 37.47413 | -88.97751 | 16487 ft | 357 kts | 208° |
| 2026-05-05 12:11 | 37.45164 | -88.99085 | 16489 ft | 357 kts | 208° |
| 2026-05-05 12:11 | 37.42917 | -89.00426 | 16489 ft | 357 kts | 208° |
| 2026-05-05 12:12 | 37.40675 | -89.01770 | 16488 ft | 357 kts | 208° |
| 2026-05-05 12:12 | 37.38434 | -89.03112 | 16482 ft | 357 kts | 208° |
| 2026-05-05 12:12 | 37.36216 | -89.04448 | 16488 ft | 357 kts | 208° |
| 2026-05-05 12:12 | 37.33980 | -89.05803 | 16486 ft | 357 kts | 209° |
| 2026-05-05 12:13 | 37.31756 | -89.07192 | 16489 ft | 357 kts | 209° |
| 2026-05-05 12:13 | 37.29499 | -89.08501 | 16494 ft | 358 kts | 206° |
| 2026-05-05 12:13 | 37.27194 | -89.09700 | 16498 ft | 358 kts | 205° |
| 2026-05-05 12:13 | 37.24875 | -89.10863 | 16497 ft | 358 kts | 204° |
| 2026-05-05 12:14 | 37.22558 | -89.12016 | 16500 ft | 359 kts | 204° |
| 2026-05-05 12:14 | 37.20236 | -89.13164 | 16504 ft | 359 kts | 204° |
| 2026-05-05 12:14 | 37.17909 | -89.14319 | 16507 ft | 359 kts | 204° |
| 2026-05-05 12:14 | 37.15584 | -89.15471 | 16508 ft | 359 kts | 204° |
| 2026-05-05 12:15 | 37.13262 | -89.16623 | 16509 ft | 359 kts | 204° |
| 2026-05-05 12:15 | 37.10939 | -89.17780 | 16512 ft | 359 kts | 204° |
| 2026-05-05 12:15 | 37.08614 | -89.18935 | 16511 ft | 359 kts | 204° |
| 2026-05-05 12:15 | 37.06296 | -89.20093 | 16506 ft | 359 kts | 204° |
| 2026-05-05 12:16 | 37.03996 | -89.21240 | 16507 ft | 359 kts | 204° |
| 2026-05-05 12:16 | 37.01672 | -89.22403 | 16509 ft | 360 kts | 204° |
| 2026-05-05 12:16 | 36.99349 | -89.23566 | 16510 ft | 360 kts | 204° |
| 2026-05-05 12:16 | 36.97023 | -89.24731 | 16508 ft | 360 kts | 204° |
| 2026-05-05 12:17 | 36.94694 | -89.25900 | 16507 ft | 360 kts | 204° |
| 2026-05-05 12:17 | 36.92389 | -89.27057 | 16503 ft | 360 kts | 204° |
| 2026-05-05 12:17 | 36.90067 | -89.28226 | 16504 ft | 360 kts | 204° |
| 2026-05-05 12:17 | 36.87744 | -89.29391 | 16502 ft | 360 kts | 204° |
| 2026-05-05 12:18 | 36.85424 | -89.30562 | 16499 ft | 360 kts | 204° |
| 2026-05-05 12:18 | 36.83099 | -89.31729 | 16494 ft | 360 kts | 204° |
| 2026-05-05 12:18 | 36.80766 | -89.32865 | 16497 ft | 360 kts | 204° |
| 2026-05-05 12:18 | 36.78426 | -89.33994 | 16495 ft | 360 kts | 204° |
| 2026-05-05 12:19 | 36.76090 | -89.35112 | 16494 ft | 360 kts | 204° |
| 2026-05-05 12:19 | 36.73741 | -89.36234 | 16495 ft | 360 kts | 203° |
| 2026-05-05 12:19 | 36.71396 | -89.37356 | 16492 ft | 360 kts | 204° |
| 2026-05-05 12:19 | 36.69047 | -89.38475 | 16495 ft | 360 kts | 204° |
| 2026-05-05 12:20 | 36.66707 | -89.39595 | 16493 ft | 360 kts | 204° |
| 2026-05-05 12:20 | 36.64363 | -89.40712 | 16494 ft | 360 kts | 204° |
| 2026-05-05 12:20 | 36.62051 | -89.41817 | 16493 ft | 360 kts | 204° |
| 2026-05-05 12:20 | 36.59706 | -89.42936 | 16492 ft | 360 kts | 204° |
| 2026-05-05 12:21 | 36.57359 | -89.44057 | 16494 ft | 361 kts | 204° |
| 2026-05-05 12:21 | 36.55019 | -89.45177 | 16495 ft | 360 kts | 204° |
| 2026-05-05 12:21 | 36.52672 | -89.46295 | 16495 ft | 360 kts | 204° |
| 2026-05-05 12:21 | 36.50334 | -89.47415 | 16492 ft | 360 kts | 204° |
| 2026-05-05 12:22 | 36.47983 | -89.48510 | 16493 ft | 361 kts | 203° |
| 2026-05-05 12:22 | 36.45627 | -89.49586 | 16497 ft | 361 kts | 203° |
| 2026-05-05 12:22 | 36.43257 | -89.50611 | 16496 ft | 361 kts | 201° |
| 2026-05-05 12:22 | 36.40869 | -89.51591 | 16414 ft | 363 kts | 201° |
| 2026-05-05 12:23 | 36.38457 | -89.52560 | 15998 ft | 364 kts | 201° |
| 2026-05-05 12:23 | 36.36070 | -89.53514 | 15600 ft | 356 kts | 200° |
| 2026-05-05 12:23 | 36.33738 | -89.54436 | 15230 ft | 348 kts | 201° |
| 2026-05-05 12:23 | 36.31486 | -89.55323 | 14866 ft | 341 kts | 200° |
| 2026-05-05 12:24 | 36.29241 | -89.56205 | 14491 ft | 336 kts | 201° |
| 2026-05-05 12:24 | 36.27017 | -89.57073 | 14109 ft | 333 kts | 200° |
| 2026-05-05 12:24 | 36.24815 | -89.57935 | 13730 ft | 330 kts | 200° |
| 2026-05-05 12:24 | 36.22629 | -89.58784 | 13318 ft | 328 kts | 201° |
| 2026-05-05 12:25 | 36.20462 | -89.59633 | 12905 ft | 326 kts | 200° |
| 2026-05-05 12:25 | 36.18304 | -89.60479 | 12496 ft | 324 kts | 201° |
| 2026-05-05 12:25 | 36.16159 | -89.61327 | 12089 ft | 323 kts | 200° |
| 2026-05-05 12:25 | 36.14019 | -89.62180 | 11694 ft | 322 kts | 201° |
| 2026-05-05 12:26 | 36.11888 | -89.63031 | 11305 ft | 322 kts | 200° |
| 2026-05-05 12:26 | 36.09757 | -89.63891 | 10912 ft | 321 kts | 201° |
| 2026-05-05 12:26 | 36.07661 | -89.64735 | 10534 ft | 321 kts | 201° |
| 2026-05-05 12:26 | 36.05541 | -89.65600 | 10158 ft | 320 kts | 200° |
| 2026-05-05 12:27 | 36.03424 | -89.66464 | 9782 ft | 320 kts | 201° |
| 2026-05-05 12:27 | 36.01308 | -89.67335 | 9371 ft | 320 kts | 201° |
| 2026-05-05 12:27 | 35.99249 | -89.68184 | 8967 ft | 297 kts | 201° |
| 2026-05-05 12:27 | 35.97351 | -89.68954 | 8556 ft | 282 kts | 201° |
| 2026-05-05 12:28 | 35.95512 | -89.69692 | 8148 ft | 274 kts | 200° |
| 2026-05-05 12:28 | 35.93684 | -89.70302 | 7747 ft | 270 kts | 197° |
| 2026-05-05 12:28 | 35.91883 | -89.70832 | 7488 ft | 262 kts | 196° |
| 2026-05-05 12:28 | 35.90129 | -89.71326 | 7240 ft | 256 kts | 196° |
| 2026-05-05 12:29 | 35.88409 | -89.71811 | 6988 ft | 252 kts | 195° |
| 2026-05-05 12:29 | 35.86710 | -89.72286 | 6745 ft | 250 kts | 196° |
| 2026-05-05 12:29 | 35.85041 | -89.72756 | 6509 ft | 248 kts | 195° |
| 2026-05-05 12:29 | 35.83363 | -89.73229 | 6268 ft | 247 kts | 196° |
| 2026-05-05 12:30 | 35.81693 | -89.73699 | 6014 ft | 245 kts | 196° |
| 2026-05-05 12:30 | 35.80033 | -89.74169 | 5760 ft | 245 kts | 196° |
| 2026-05-05 12:30 | 35.78376 | -89.74631 | 5511 ft | 243 kts | 196° |
| 2026-05-05 12:30 | 35.76727 | -89.75094 | 5262 ft | 243 kts | 196° |
| 2026-05-05 12:31 | 35.75079 | -89.75559 | 5014 ft | 243 kts | 196° |
| 2026-05-05 12:31 | 35.73432 | -89.76018 | 4771 ft | 242 kts | 195° |
| 2026-05-05 12:31 | 35.71787 | -89.76483 | 4519 ft | 242 kts | 196° |
| 2026-05-05 12:31 | 35.70163 | -89.76922 | 4274 ft | 241 kts | 195° |
| 2026-05-05 12:32 | 35.68525 | -89.77343 | 4146 ft | 236 kts | 195° |
| 2026-05-05 12:32 | 35.66915 | -89.77755 | 4118 ft | 243 kts | 195° |
| 2026-05-05 12:32 | 35.65202 | -89.78194 | 4110 ft | 258 kts | 195° |
| 2026-05-05 12:32 | 35.63434 | -89.78653 | 4113 ft | 258 kts | 194° |
| 2026-05-05 12:33 | 35.61700 | -89.79103 | 4124 ft | 251 kts | 195° |
| 2026-05-05 12:33 | 35.60007 | -89.79528 | 4118 ft | 246 kts | 194° |
| 2026-05-05 12:33 | 35.58344 | -89.79956 | 4118 ft | 242 kts | 195° |
| 2026-05-05 12:33 | 35.56703 | -89.80371 | 4114 ft | 239 kts | 195° |
| 2026-05-05 12:34 | 35.55107 | -89.80894 | 4114 ft | 236 kts | 201° |
| 2026-05-05 12:34 | 35.53599 | -89.81595 | 4111 ft | 233 kts | 206° |
| 2026-05-05 12:34 | 35.52183 | -89.82538 | 4113 ft | 230 kts | 212° |
| 2026-05-05 12:34 | 35.50945 | -89.83744 | 4115 ft | 229 kts | 234° |
| 2026-05-05 12:35 | 35.50445 | -89.85710 | 4125 ft | 248 kts | 257° |
| 2026-05-05 12:35 | 35.50158 | -89.87784 | 4131 ft | 245 kts | 255° |
| 2026-05-05 12:35 | 35.49810 | -89.89821 | 4129 ft | 243 kts | 255° |
| 2026-05-05 12:35 | 35.49471 | -89.91845 | 4136 ft | 241 kts | 255° |
| 2026-05-05 12:36 | 35.49134 | -89.93848 | 4130 ft | 239 kts | 255° |
| 2026-05-05 12:36 | 35.48767 | -89.95838 | 4133 ft | 238 kts | 252° |
| 2026-05-05 12:36 | 35.47975 | -89.97645 | 4124 ft | 256 kts | 225° |
| 2026-05-05 12:36 | 35.46442 | -89.98549 | 4120 ft | 245 kts | 192° |
| 2026-05-05 12:37 | 35.44759 | -89.98603 | 4123 ft | 238 kts | 183° |
| 2026-05-05 12:37 | 35.43126 | -89.98468 | 4121 ft | 233 kts | 180° |
| 2026-05-05 12:37 | 35.41529 | -89.98260 | 4118 ft | 228 kts | 178° |
| 2026-05-05 12:37 | 35.39975 | -89.97998 | 4123 ft | 222 kts | 177° |
| 2026-05-05 12:38 | 35.38457 | -89.97766 | 4122 ft | 218 kts | 178° |
| 2026-05-05 12:38 | 35.36960 | -89.97525 | 4122 ft | 216 kts | 178° |
| 2026-05-05 12:38 | 35.35479 | -89.97393 | 4122 ft | 211 kts | 182° |
| 2026-05-05 12:38 | 35.34022 | -89.97340 | 4123 ft | 209 kts | 182° |
| 2026-05-05 12:39 | 35.32569 | -89.97222 | 4121 ft | 208 kts | 181° |
| 2026-05-05 12:39 | 35.31174 | -89.97091 | 4157 ft | 193 kts | 181° |
| 2026-05-05 12:39 | 35.29868 | -89.96963 | 4152 ft | 184 kts | 181° |
| 2026-05-05 12:39 | 35.28629 | -89.96850 | 4178 ft | 177 kts | 182° |
| 2026-05-05 12:40 | 35.27399 | -89.96865 | 4145 ft | 178 kts | 188° |
| 2026-05-05 12:40 | 35.26167 | -89.97067 | 4092 ft | 176 kts | 197° |
| 2026-05-05 12:40 | 35.25058 | -89.97624 | 4011 ft | 171 kts | 213° |
| 2026-05-05 12:40 | 35.23932 | -89.98087 | 3949 ft | 175 kts | 185° |
| 2026-05-05 12:41 | 35.22807 | -89.97949 | 4015 ft | 155 kts | 180° |
| 2026-05-05 12:41 | 35.21736 | -89.97740 | 3869 ft | 159 kts | 177° |
| 2026-05-05 12:41 | 35.20651 | -89.97519 | 3792 ft | 157 kts | 178° |
| 2026-05-05 12:41 | 35.19545 | -89.97188 | 3465 ft | 169 kts | 172° |
| 2026-05-05 12:42 | 35.18414 | -89.96984 | 3259 ft | 165 kts | 182° |
| 2026-05-05 12:42 | 35.17337 | -89.96900 | 3223 ft | 138 kts | 185° |
| 2026-05-05 12:42 | 35.16464 | -89.96856 | 3056 ft | 130 kts | 187° |
| 2026-05-05 12:42 | 35.15516 | -89.96859 | 2742 ft | 131 kts | 189° |
| 2026-05-05 12:43 | 35.14639 | -89.96969 | 2531 ft | 122 kts | 196° |
| 2026-05-05 12:43 | 35.13806 | -89.97143 | 2328 ft | 122 kts | 193° |
| 2026-05-05 12:43 | 35.12949 | -89.97219 | 2133 ft | 124 kts | 190° |
| 2026-05-05 12:43 | 35.12082 | -89.97191 | 1980 ft | 127 kts | 186° |
| 2026-05-05 12:44 | 35.11209 | -89.97149 | 1936 ft | 120 kts | 186° |
| 2026-05-05 12:44 | 35.10448 | -89.97139 | 1820 ft | 105 kts | 192° |
| 2026-05-05 12:44 | 35.09735 | -89.97152 | 1661 ft | 101 kts | 193° |
| 2026-05-05 12:44 | 35.09002 | -89.97169 | 1393 ft | 108 kts | 191° |
| 2026-05-05 12:45 | 35.08265 | -89.97250 | 1165 ft | 109 kts | 191° |
| 2026-05-05 12:45 | 35.07486 | -89.97354 | 958 ft | 115 kts | 183° |
| 2026-05-05 12:45 | 35.06684 | -89.97321 | 744 ft | 113 kts | 180° |
| 2026-05-05 12:45 | 35.05910 | -89.97298 | 493 ft | 110 kts | 180° |
| 2026-05-05 12:46 | 35.05148 | -89.97295 | 350 ft | 107 kts | 182° |
| 2026-05-05 12:46 | 35.04493 | -89.97283 | 297 ft | 79 kts | 182° |
| 2026-05-05 12:46 | 35.04073 | -89.97293 | 299 ft | 40 kts | 179° |
| 2026-05-05 12:46 | 35.03849 | -89.97298 | 304 ft | 22 kts | 193° |
| 2026-05-05 12:47 | 35.03811 | -89.97347 | 306 ft | 0 kts | 257° |
| 2026-05-05 12:47 | 35.03809 | -89.97355 | 306 ft | 6 kts | 256° |
| 2026-05-05 12:47 | 35.03808 | -89.97453 | 310 ft | 17 kts | 279° |
| 2026-05-05 12:47 | 35.03810 | -89.97623 | 311 ft | 21 kts | 269° |
| 2026-05-05 12:48 | 35.03879 | -89.97731 | 310 ft | 20 kts | 354° |
| 2026-05-05 12:48 | 35.04023 | -89.97735 | 310 ft | 21 kts | 0° |
| 2026-05-05 12:48 | 35.04175 | -89.97738 | 308 ft | 24 kts | 359° |
| 2026-05-05 12:48 | 35.04394 | -89.97746 | 302 ft | 42 kts | 358° |
| 2026-05-05 12:49 | 35.04753 | -89.97754 | 286 ft | 57 kts | 359° |
| 2026-05-05 12:49 | 35.05160 | -89.97750 | 277 ft | 58 kts | 7° |
| 2026-05-05 12:49 | 35.05406 | -89.97783 | 277 ft | 31 kts | 349° |
| 2026-05-05 12:49 | 35.05498 | -89.97939 | 274 ft | 6 kts | 335° |
| 2026-05-05 12:50 | 35.05541 | -89.97917 | 274 ft | 3 kts | 115° |
| 2026-05-05 12:50 | 35.05538 | -89.97915 | 274 ft | 0 kts | 142° |